Aviation Digital Data Service (ADDS)

Output produced by TAFs form (2039 UTC 31 October 2014)
found at http://www.aviationweather.gov/adds/tafs/
 
KMRB 311720Z 3118/0118 13004KT P6SM BKN050 
     FM010300 00000KT P6SM OVC050 
     FM011300 35007KT P6SM -RA OVC040 
     FM011500 35011KT 5SM -RA BR OVC020